sensor_id;sensor_type;location;lat;lon;timestamp;pressure;altitude;pressure_sealevel;temperature;humidity
13612;BME280;6877;51.436;6.774;2023-11-21T00:00:58;100558.78;;;6.46;100.00
13612;BME280;6877;51.436;6.774;2023-11-21T00:03:25;100557.91;;;6.45;100.00
13612;BME280;6877;51.436;6.774;2023-11-21T00:05:59;100561.38;;;6.47;100.00
13612;BME280;6877;51.436;6.774;2023-11-21T00:08:27;100559.63;;;6.51;100.00
13612;BME280;6877;51.436;6.774;2023-11-21T00:10:54;100557.06;;;6.49;100.00
13612;BME280;6877;51.436;6.774;2023-11-21T00:13:21;100561.34;;;6.49;100.00
13612;BME280;6877;51.436;6.774;2023-11-21T00:15:47;100563.13;;;6.45;100.00
13612;BME280;6877;51.436;6.774;2023-11-21T00:18:14;100566.59;;;6.37;100.00
13612;BME280;6877;51.436;6.774;2023-11-21T00:20:40;100568.41;;;6.25;100.00
13612;BME280;6877;51.436;6.774;2023-11-21T00:23:12;100574.47;;;6.20;100.00
13612;BME280;6877;51.436;6.774;2023-11-21T00:25:43;100576.22;;;6.22;100.00
13612;BME280;6877;51.436;6.774;2023-11-21T00:28:15;100576.19;;;6.25;100.00
13612;BME280;6877;51.436;6.774;2023-11-21T00:30:42;100570.13;;;6.28;100.00
13612;BME280;6877;51.436;6.774;2023-11-21T00:33:08;100573.59;;;6.27;100.00
13612;BME280;6877;51.436;6.774;2023-11-21T00:35:35;100570.16;;;6.20;100.00
13612;BME280;6877;51.436;6.774;2023-11-21T00:38:01;100577.94;;;6.17;100.00
13612;BME280;6877;51.436;6.774;2023-11-21T00:40:29;100578.81;;;6.18;100.00
13612;BME280;6877;51.436;6.774;2023-11-21T00:42:56;100577.97;;;6.14;100.00
13612;BME280;6877;51.436;6.774;2023-11-21T00:45:22;100578.00;;;6.07;100.00
13612;BME280;6877;51.436;6.774;2023-11-21T00:47:49;100575.41;;;5.97;100.00
13612;BME280;6877;51.436;6.774;2023-11-21T00:50:16;100578.03;;;5.90;100.00
13612;BME280;6877;51.436;6.774;2023-11-21T00:52:42;100577.16;;;5.78;100.00
13612;BME280;6877;51.436;6.774;2023-11-21T00:55:09;100578.88;;;5.70;100.00
13612;BME280;6877;51.436;6.774;2023-11-21T00:57:36;100567.66;;;5.65;100.00
13612;BME280;6877;51.436;6.774;2023-11-21T01:00:04;100569.41;;;5.58;100.00
13612;BME280;6877;51.436;6.774;2023-11-21T01:02:44;100570.28;;;5.50;100.00
13612;BME280;6877;51.436;6.774;2023-11-21T01:05:11;100579.78;;;5.49;100.00
13612;BME280;6877;51.436;6.774;2023-11-21T01:07:38;100582.38;;;5.42;100.00
13612;BME280;6877;51.436;6.774;2023-11-21T01:10:09;100587.56;;;5.39;100.00
13612;BME280;6877;51.436;6.774;2023-11-21T01:12:37;100582.38;;;5.39;100.00
13612;BME280;6877;51.436;6.774;2023-11-21T01:15:05;100591.91;;;5.46;100.00
13612;BME280;6877;51.436;6.774;2023-11-21T01:17:38;100592.75;;;5.51;100.00
13612;BME280;6877;51.436;6.774;2023-11-21T01:20:06;100593.63;;;5.59;100.00
13612;BME280;6877;51.436;6.774;2023-11-21T01:22:39;100597.94;;;5.63;100.00
13612;BME280;6877;51.436;6.774;2023-11-21T01:25:06;100596.22;;;5.65;100.00
13612;BME280;6877;51.436;6.774;2023-11-21T01:27:34;100603.13;;;5.66;100.00
13612;BME280;6877;51.436;6.774;2023-11-21T01:30:06;100604.84;;;5.73;100.00
13612;BME280;6877;51.436;6.774;2023-11-21T01:32:36;100603.09;;;5.80;100.00
13612;BME280;6877;51.436;6.774;2023-11-21T01:35:03;100603.13;;;5.88;100.00
13612;BME280;6877;51.436;6.774;2023-11-21T01:37:32;100610.91;;;5.91;100.00
13612;BME280;6877;51.436;6.774;2023-11-21T01:39:59;100611.81;;;5.93;100.00
13612;BME280;6877;51.436;6.774;2023-11-21T01:42:27;100607.47;;;5.96;100.00
13612;BME280;6877;51.436;6.774;2023-11-21T01:45:01;100611.75;;;6.02;100.00
13612;BME280;6877;51.436;6.774;2023-11-21T01:47:29;100614.34;;;6.05;100.00
13612;BME280;6877;51.436;6.774;2023-11-21T01:49:56;100619.56;;;6.10;100.00
13612;BME280;6877;51.436;6.774;2023-11-21T01:52:23;100621.28;;;6.14;100.00
13612;BME280;6877;51.436;6.774;2023-11-21T01:54:49;100619.53;;;6.20;100.00
13612;BME280;6877;51.436;6.774;2023-11-21T01:57:21;100624.72;;;6.23;100.00
13612;BME280;6877;51.436;6.774;2023-11-21T01:59:48;100629.06;;;6.21;100.00
13612;BME280;6877;51.436;6.774;2023-11-21T02:02:16;100618.66;;;6.21;100.00
13612;BME280;6877;51.436;6.774;2023-11-21T02:04:43;100629.91;;;6.23;100.00
13612;BME280;6877;51.436;6.774;2023-11-21T02:07:09;100634.25;;;6.24;100.00
13612;BME280;6877;51.436;6.774;2023-11-21T02:09:36;100625.56;;;6.25;100.00
13612;BME280;6877;51.436;6.774;2023-11-21T02:12:04;100622.94;;;6.30;100.00
13612;BME280;6877;51.436;6.774;2023-11-21T02:14:31;100629.03;;;6.34;100.00
13612;BME280;6877;51.436;6.774;2023-11-21T02:16:58;100636.81;;;6.35;100.00
13612;BME280;6877;51.436;6.774;2023-11-21T02:19:25;100636.81;;;6.38;100.00
13612;BME280;6877;51.436;6.774;2023-11-21T02:21:59;100639.34;;;6.46;100.00
13612;BME280;6877;51.436;6.774;2023-11-21T02:24:29;100639.34;;;6.49;100.00
13612;BME280;6877;51.436;6.774;2023-11-21T02:26:56;100641.94;;;6.52;100.00
13612;BME280;6877;51.436;6.774;2023-11-21T02:29:27;100641.06;;;6.56;100.00
13612;BME280;6877;51.436;6.774;2023-11-21T02:31:55;100639.31;;;6.61;100.00
13612;BME280;6877;51.436;6.774;2023-11-21T02:34:26;100640.16;;;6.62;100.00
13612;BME280;6877;51.436;6.774;2023-11-21T02:36:53;100641.91;;;6.64;100.00
13612;BME280;6877;51.436;6.774;2023-11-21T02:39:20;100646.22;;;6.68;100.00
13612;BME280;6877;51.436;6.774;2023-11-21T02:41:48;100654.88;;;6.70;100.00
13612;BME280;6877;51.436;6.774;2023-11-21T02:44:15;100642.72;;;6.76;100.00
13612;BME280;6877;51.436;6.774;2023-11-21T02:46:42;100645.31;;;6.79;100.00
13612;BME280;6877;51.436;6.774;2023-11-21T02:49:08;100640.09;;;6.80;100.00
13612;BME280;6877;51.436;6.774;2023-11-21T02:51:41;100641.81;;;6.83;100.00
13612;BME280;6877;51.436;6.774;2023-11-21T02:54:08;100642.69;;;6.85;100.00
13612;BME280;6877;51.436;6.774;2023-11-21T02:56:39;100641.81;;;6.87;100.00
13612;BME280;6877;51.436;6.774;2023-11-21T02:59:11;100653.06;;;6.89;100.00
13612;BME280;6877;51.436;6.774;2023-11-21T03:01:38;100653.06;;;6.91;100.00
13612;BME280;6877;51.436;6.774;2023-11-21T03:04:04;100652.16;;;6.93;100.00
13612;BME280;6877;51.436;6.774;2023-11-21T03:06:36;100645.22;;;6.92;100.00
13612;BME280;6877;51.436;6.774;2023-11-21T03:09:02;100659.09;;;6.94;100.00
13612;BME280;6877;51.436;6.774;2023-11-21T03:11:29;100658.25;;;6.94;100.00
13612;BME280;6877;51.436;6.774;2023-11-21T03:13:56;100662.56;;;6.95;100.00
13612;BME280;6877;51.436;6.774;2023-11-21T03:16:23;100658.25;;;6.94;100.00
13612;BME280;6877;51.436;6.774;2023-11-21T03:18:54;100659.97;;;6.95;100.00
13612;BME280;6877;51.436;6.774;2023-11-21T03:21:21;100660.81;;;6.99;100.00
13612;BME280;6877;51.436;6.774;2023-11-21T03:23:47;100666.03;;;7.00;100.00
13612;BME280;6877;51.436;6.774;2023-11-21T03:26:14;100672.06;;;6.99;100.00
13612;BME280;6877;51.436;6.774;2023-11-21T03:28:41;100659.94;;;6.98;100.00
13612;BME280;6877;51.436;6.774;2023-11-21T03:31:07;100667.72;;;7.00;100.00
13612;BME280;6877;51.436;6.774;2023-11-21T03:33:35;100677.28;;;6.99;100.00
13612;BME280;6877;51.436;6.774;2023-11-21T03:36:02;100680.75;;;6.98;100.00
13612;BME280;6877;51.436;6.774;2023-11-21T03:38:35;100692.88;;;6.99;100.00
13612;BME280;6877;51.436;6.774;2023-11-21T03:41:02;100683.34;;;6.96;100.00
13612;BME280;6877;51.436;6.774;2023-11-21T03:43:33;100690.31;;;6.97;100.00
13612;BME280;6877;51.436;6.774;2023-11-21T03:46:05;100688.56;;;6.98;100.00
13612;BME280;6877;51.436;6.774;2023-11-21T03:48:31;100696.38;;;6.98;100.00
13612;BME280;6877;51.436;6.774;2023-11-21T03:50:59;100698.09;;;6.96;100.00
13612;BME280;6877;51.436;6.774;2023-11-21T03:53:25;100695.53;;;6.93;100.00
13612;BME280;6877;51.436;6.774;2023-11-21T03:55:52;100699.88;;;6.91;100.00
13612;BME280;6877;51.436;6.774;2023-11-21T03:58:23;100710.28;;;6.92;100.00
13612;BME280;6877;51.436;6.774;2023-11-21T04:00:50;100705.94;;;6.94;100.00
13612;BME280;6877;51.436;6.774;2023-11-21T04:03:16;100709.38;;;6.96;100.00
13612;BME280;6877;51.436;6.774;2023-11-21T04:05:43;100718.94;;;6.96;100.00
13612;BME280;6877;51.436;6.774;2023-11-21T04:08:10;100725.88;;;6.94;100.00
13612;BME280;6877;51.436;6.774;2023-11-21T04:10:41;100719.84;;;6.90;100.00
13612;BME280;6877;51.436;6.774;2023-11-21T04:13:13;100719.84;;;6.89;100.00
13612;BME280;6877;51.436;6.774;2023-11-21T04:15:45;100709.44;;;6.87;100.00
13612;BME280;6877;51.436;6.774;2023-11-21T04:18:11;100718.97;;;6.85;100.00
13612;BME280;6877;51.436;6.774;2023-11-21T04:20:43;100725.03;;;6.86;100.00
13612;BME280;6877;51.436;6.774;2023-11-21T04:23:09;100717.25;;;6.83;100.00
13612;BME280;6877;51.436;6.774;2023-11-21T04:25:41;100720.72;;;6.82;100.00
13612;BME280;6877;51.436;6.774;2023-11-21T04:28:08;100718.13;;;6.82;100.00
13612;BME280;6877;51.436;6.774;2023-11-21T04:30:34;100725.06;;;6.84;100.00
13612;BME280;6877;51.436;6.774;2023-11-21T04:33:01;100719.84;;;6.86;100.00
13612;BME280;6877;51.436;6.774;2023-11-21T04:35:29;100722.44;;;6.86;100.00
13612;BME280;6877;51.436;6.774;2023-11-21T04:37:55;100723.31;;;6.86;100.00
13612;BME280;6877;51.436;6.774;2023-11-21T04:40:23;100722.47;;;6.84;100.00
13612;BME280;6877;51.436;6.774;2023-11-21T04:42:54;100718.97;;;6.81;100.00
13612;BME280;6877;51.436;6.774;2023-11-21T04:45:26;100724.19;;;6.79;100.00
13612;BME280;6877;51.436;6.774;2023-11-21T04:47:53;100735.47;;;6.77;100.00
13612;BME280;6877;51.436;6.774;2023-11-21T04:50:20;100738.06;;;6.80;100.00
13612;BME280;6877;51.436;6.774;2023-11-21T04:52:47;100731.13;;;6.82;100.00
13612;BME280;6877;51.436;6.774;2023-11-21T04:55:14;100743.25;;;6.83;100.00
13612;BME280;6877;51.436;6.774;2023-11-21T04:57:41;100745.00;;;6.85;100.00
13612;BME280;6877;51.436;6.774;2023-11-21T05:00:11;100743.25;;;6.90;100.00
13612;BME280;6877;51.436;6.774;2023-11-21T05:02:40;100751.00;;;6.96;100.00
13612;BME280;6877;51.436;6.774;2023-11-21T05:05:07;100758.81;;;6.98;100.00
13612;BME280;6877;51.436;6.774;2023-11-21T05:07:36;100755.34;;;6.96;100.00
13612;BME280;6877;51.436;6.774;2023-11-21T05:10:05;100754.50;;;6.95;100.00
13612;BME280;6877;51.436;6.774;2023-11-21T05:12:37;100757.09;;;6.97;100.00
13612;BME280;6877;51.436;6.774;2023-11-21T05:15:05;100758.84;;;6.95;100.00
13612;BME280;6877;51.436;6.774;2023-11-21T05:17:34;100757.09;;;6.94;100.00
13612;BME280;6877;51.436;6.774;2023-11-21T05:20:05;100760.56;;;6.93;100.00
13612;BME280;6877;51.436;6.774;2023-11-21T05:22:35;100758.84;;;6.92;100.00
13612;BME280;6877;51.436;6.774;2023-11-21T05:25:07;100761.41;;;6.93;100.00
13612;BME280;6877;51.436;6.774;2023-11-21T05:27:39;100770.13;;;6.94;100.00
13612;BME280;6877;51.436;6.774;2023-11-21T05:30:06;100764.03;;;6.95;100.00
13612;BME280;6877;51.436;6.774;2023-11-21T05:32:32;100779.66;;;6.95;100.00
13612;BME280;6877;51.436;6.774;2023-11-21T05:34:59;100784.84;;;6.92;100.00
13612;BME280;6877;51.436;6.774;2023-11-21T05:37:26;100788.34;;;6.91;100.00
13612;BME280;6877;51.436;6.774;2023-11-21T05:39:53;100790.09;;;6.90;100.00
13612;BME280;6877;51.436;6.774;2023-11-21T05:42:23;100795.28;;;6.86;100.00
13612;BME280;6877;51.436;6.774;2023-11-21T05:44:49;100798.75;;;6.83;100.00
13612;BME280;6877;51.436;6.774;2023-11-21T05:47:16;100799.63;;;6.82;100.00
13612;BME280;6877;51.436;6.774;2023-11-21T05:49:43;100802.22;;;6.84;100.00
13612;BME280;6877;51.436;6.774;2023-11-21T05:52:11;100806.56;;;6.82;100.00
13612;BME280;6877;51.436;6.774;2023-11-21T05:54:37;100808.31;;;6.78;100.00
13612;BME280;6877;51.436;6.774;2023-11-21T05:57:04;100810.03;;;6.79;100.00
13612;BME280;6877;51.436;6.774;2023-11-21T05:59:35;100812.63;;;6.81;100.00
13612;BME280;6877;51.436;6.774;2023-11-21T06:02:02;100819.56;;;6.82;100.00
13612;BME280;6877;51.436;6.774;2023-11-21T06:04:29;100828.25;;;6.82;100.00
13612;BME280;6877;51.436;6.774;2023-11-21T06:07:00;100825.63;;;6.82;100.00
13612;BME280;6877;51.436;6.774;2023-11-21T06:09:32;100827.34;;;6.83;100.00
13612;BME280;6877;51.436;6.774;2023-11-21T06:11:59;100831.72;;;6.84;100.00
13612;BME280;6877;51.436;6.774;2023-11-21T06:14:31;100839.53;;;6.84;100.00
13612;BME280;6877;51.436;6.774;2023-11-21T06:16:59;100836.91;;;6.83;100.00
13612;BME280;6877;51.436;6.774;2023-11-21T06:19:25;100837.78;;;6.82;100.00
13612;BME280;6877;51.436;6.774;2023-11-21T06:21:52;100842.09;;;6.86;100.00
13612;BME280;6877;51.436;6.774;2023-11-21T06:24:23;100845.59;;;6.85;100.00
13612;BME280;6877;51.436;6.774;2023-11-21T06:26:55;100849.03;;;6.85;100.00
13612;BME280;6877;51.436;6.774;2023-11-21T06:29:21;100859.44;;;6.87;100.00
13612;BME280;6877;51.436;6.774;2023-11-21T06:31:48;100859.44;;;6.88;100.00
13612;BME280;6877;51.436;6.774;2023-11-21T06:34:20;100856.84;;;6.87;100.00
13612;BME280;6877;51.436;6.774;2023-11-21T06:36:52;100862.91;;;6.86;100.00
13612;BME280;6877;51.436;6.774;2023-11-21T06:39:24;100860.31;;;6.87;100.00
13612;BME280;6877;51.436;6.774;2023-11-21T06:41:50;100869.84;;;6.87;100.00
13612;BME280;6877;51.436;6.774;2023-11-21T06:44:17;100872.44;;;6.90;100.00
13612;BME280;6877;51.436;6.774;2023-11-21T06:46:48;100880.25;;;6.93;100.00
13612;BME280;6877;51.436;6.774;2023-11-21T06:49:15;100877.63;;;6.93;100.00
13612;BME280;6877;51.436;6.774;2023-11-21T06:51:42;100881.13;;;6.92;100.00
13612;BME280;6877;51.436;6.774;2023-11-21T06:54:13;100888.91;;;6.92;100.00
13612;BME280;6877;51.436;6.774;2023-11-21T06:56:46;100892.41;;;6.94;100.00
13612;BME280;6877;51.436;6.774;2023-11-21T06:59:13;100894.13;;;6.95;100.00
13612;BME280;6877;51.436;6.774;2023-11-21T07:01:39;100906.28;;;6.97;100.00
13612;BME280;6877;51.436;6.774;2023-11-21T07:04:07;100909.72;;;6.98;100.00
13612;BME280;6877;51.436;6.774;2023-11-21T07:06:40;100911.44;;;6.99;100.00
13612;BME280;6877;51.436;6.774;2023-11-21T07:09:11;100913.22;;;7.00;100.00
13612;BME280;6877;51.436;6.774;2023-11-21T07:11:42;100914.06;;;7.02;100.00
13612;BME280;6877;51.436;6.774;2023-11-21T07:14:09;100919.25;;;7.05;100.00
13612;BME280;6877;51.436;6.774;2023-11-21T07:16:40;100923.59;;;7.08;100.00
13612;BME280;6877;51.436;6.774;2023-11-21T07:19:12;100925.31;;;7.09;100.00
13612;BME280;6877;51.436;6.774;2023-11-21T07:21:43;100927.06;;;7.11;100.00
13612;BME280;6877;51.436;6.774;2023-11-21T07:24:10;100930.53;;;7.12;100.00
13612;BME280;6877;51.436;6.774;2023-11-21T07:26:42;100920.13;;;7.13;100.00
13612;BME280;6877;51.436;6.774;2023-11-21T07:29:14;100927.03;;;7.17;100.00
13612;BME280;6877;51.436;6.774;2023-11-21T07:31:40;100927.91;;;7.21;100.00
13612;BME280;6877;51.436;6.774;2023-11-21T07:34:09;100926.16;;;7.26;100.00
13612;BME280;6877;51.436;6.774;2023-11-21T07:36:38;100933.94;;;7.31;100.00
13612;BME280;6877;51.436;6.774;2023-11-21T07:39:04;100935.69;;;7.30;100.00
13612;BME280;6877;51.436;6.774;2023-11-21T07:41:37;100942.63;;;7.31;100.00
13612;BME280;6877;51.436;6.774;2023-11-21T07:44:11;100933.06;;;7.36;100.00
13612;BME280;6877;51.436;6.774;2023-11-21T07:46:42;100948.69;;;7.42;100.00
13612;BME280;6877;51.436;6.774;2023-11-21T07:49:09;100946.09;;;7.47;100.00
13612;BME280;6877;51.436;6.774;2023-11-21T07:51:35;100946.94;;;7.54;100.00
13612;BME280;6877;51.436;6.774;2023-11-21T07:54:07;100959.06;;;7.64;100.00
13612;BME280;6877;51.436;6.774;2023-11-21T07:56:38;100963.38;;;7.76;100.00
13612;BME280;6877;51.436;6.774;2023-11-21T07:59:05;100970.25;;;7.86;100.00
13612;BME280;6877;51.436;6.774;2023-11-21T08:01:32;100973.69;;;7.94;100.00
13612;BME280;6877;51.436;6.774;2023-11-21T08:03:59;100978.00;;;8.00;100.00
13612;BME280;6877;51.436;6.774;2023-11-21T08:06:30;100981.47;;;8.06;100.00
13612;BME280;6877;51.436;6.774;2023-11-21T08:09:02;100986.66;;;8.11;100.00
13612;BME280;6877;51.436;6.774;2023-11-21T08:11:33;100996.19;;;8.17;100.00
13612;BME280;6877;51.436;6.774;2023-11-21T08:14:00;101005.72;;;8.24;100.00
13612;BME280;6877;51.436;6.774;2023-11-21T08:16:26;101010.06;;;8.25;100.00
13612;BME280;6877;51.436;6.774;2023-11-21T08:18:53;101021.34;;;8.25;100.00
13612;BME280;6877;51.436;6.774;2023-11-21T08:21:25;101014.41;;;8.24;100.00
13612;BME280;6877;51.436;6.774;2023-11-21T08:23:55;101023.13;;;8.20;100.00
13612;BME280;6877;51.436;6.774;2023-11-21T08:26:22;101028.34;;;8.20;100.00
13612;BME280;6877;51.436;6.774;2023-11-21T08:28:49;101024.88;;;8.17;100.00
13612;BME280;6877;51.436;6.774;2023-11-21T08:31:15;101030.09;;;8.12;100.00
13612;BME280;6877;51.436;6.774;2023-11-21T08:33:42;101027.50;;;8.10;100.00
13612;BME280;6877;51.436;6.774;2023-11-21T08:36:14;101030.97;;;8.12;100.00
13612;BME280;6877;51.436;6.774;2023-11-21T08:38:45;101030.97;;;8.12;100.00
13612;BME280;6877;51.436;6.774;2023-11-21T08:41:12;101038.78;;;8.12;100.00
13612;BME280;6877;51.436;6.774;2023-11-21T08:43:38;101030.97;;;8.11;100.00
13612;BME280;6877;51.436;6.774;2023-11-21T08:46:08;101032.75;;;8.04;100.00
13612;BME280;6877;51.436;6.774;2023-11-21T08:48:36;101031.91;;;8.01;100.00
13612;BME280;6877;51.436;6.774;2023-11-21T08:51:03;101039.69;;;7.99;100.00
13612;BME280;6877;51.436;6.774;2023-11-21T08:53:30;101045.78;;;8.01;100.00
13612;BME280;6877;51.436;6.774;2023-11-21T08:55:57;101044.88;;;8.08;100.00
13612;BME280;6877;51.436;6.774;2023-11-21T08:58:23;101055.28;;;8.15;100.00
13612;BME280;6877;51.436;6.774;2023-11-21T09:00:55;101053.56;;;8.17;100.00
13612;BME280;6877;51.436;6.774;2023-11-21T09:03:27;101062.22;;;8.20;100.00
13612;BME280;6877;51.436;6.774;2023-11-21T09:05:57;101062.25;;;8.17;100.00
13612;BME280;6877;51.436;6.774;2023-11-21T09:08:25;101065.69;;;8.21;100.00
13612;BME280;6877;51.436;6.774;2023-11-21T09:10:56;101072.66;;;8.20;100.00
13612;BME280;6877;51.436;6.774;2023-11-21T09:13:23;101071.78;;;8.21;100.00
13612;BME280;6877;51.436;6.774;2023-11-21T09:15:51;101076.13;;;8.24;100.00
13612;BME280;6877;51.436;6.774;2023-11-21T09:18:17;101071.75;;;8.27;100.00
13612;BME280;6877;51.436;6.774;2023-11-21T09:20:44;101087.38;;;8.30;100.00
13612;BME280;6877;51.436;6.774;2023-11-21T09:23:10;101093.44;;;8.37;100.00
13612;BME280;6877;51.436;6.774;2023-11-21T09:25:37;101088.22;;;8.42;100.00
13612;BME280;6877;51.436;6.774;2023-11-21T09:28:05;101088.19;;;8.51;100.00
13612;BME280;6877;51.436;6.774;2023-11-21T09:30:35;101092.50;;;8.63;100.00
13612;BME280;6877;51.436;6.774;2023-11-21T09:33:07;101097.66;;;8.73;100.00
13612;BME280;6877;51.436;6.774;2023-11-21T09:35:41;101108.03;;;8.87;100.00
13612;BME280;6877;51.436;6.774;2023-11-21T09:38:10;101102.75;;;8.95;100.00
13612;BME280;6877;51.436;6.774;2023-11-21T09:40:37;101109.72;;;8.96;100.00
13612;BME280;6877;51.436;6.774;2023-11-21T09:43:16;101104.53;;;8.87;100.00
13612;BME280;6877;51.436;6.774;2023-11-21T09:45:47;101106.31;;;8.81;100.00
13612;BME280;6877;51.436;6.774;2023-11-21T09:48:22;101109.81;;;8.73;100.00
13612;BME280;6877;51.436;6.774;2023-11-21T09:50:53;101115.09;;;8.61;100.00
13612;BME280;6877;51.436;6.774;2023-11-21T09:53:21;101116.00;;;8.56;100.00
13612;BME280;6877;51.436;6.774;2023-11-21T09:55:50;101116.88;;;8.52;100.00
13612;BME280;6877;51.436;6.774;2023-11-21T09:58:22;101116.00;;;8.50;100.00
13612;BME280;6877;51.436;6.774;2023-11-21T10:00:53;101126.47;;;8.52;100.00
13612;BME280;6877;51.436;6.774;2023-11-21T10:03:25;101122.97;;;8.56;100.00
13612;BME280;6877;51.436;6.774;2023-11-21T10:05:56;101124.69;;;8.62;100.00
13612;BME280;6877;51.436;6.774;2023-11-21T10:08:27;101123.78;;;8.70;100.00
13612;BME280;6877;51.436;6.774;2023-11-21T10:10:59;101131.56;;;8.78;100.00
13612;BME280;6877;51.436;6.774;2023-11-21T10:13:26;101129.78;;;8.86;100.00
13612;BME280;6877;51.436;6.774;2023-11-21T10:16:01;101123.63;;;8.92;100.00
13612;BME280;6877;51.436;6.774;2023-11-21T10:18:36;101130.53;;;9.03;100.00
13612;BME280;6877;51.436;6.774;2023-11-21T10:21:07;101135.66;;;9.19;100.00
13612;BME280;6877;51.436;6.774;2023-11-21T10:23:35;101137.31;;;9.29;100.00
13612;BME280;6877;51.436;6.774;2023-11-21T10:26:08;101147.72;;;9.38;100.00
13612;BME280;6877;51.436;6.774;2023-11-21T10:28:56;101146.81;;;9.42;100.00
13612;BME280;6877;51.436;6.774;2023-11-21T10:31:32;101146.75;;;9.48;100.00
13612;BME280;6877;51.436;6.774;2023-11-21T10:34:18;101136.34;;;9.42;100.00
13612;BME280;6877;51.436;6.774;2023-11-21T10:36:45;101141.63;;;9.36;100.00
13612;BME280;6877;51.436;6.774;2023-11-21T10:39:21;101135.47;;;9.46;100.00
13612;BME280;6877;51.436;6.774;2023-11-21T10:41:50;101139.72;;;9.60;100.00
13612;BME280;6877;51.436;6.774;2023-11-21T10:44:18;101148.25;;;9.77;100.00
13612;BME280;6877;51.436;6.774;2023-11-21T10:46:53;101155.09;;;9.93;100.00
13612;BME280;6877;51.436;6.774;2023-11-21T10:49:28;101157.59;;;10.06;100.00
13612;BME280;6877;51.436;6.774;2023-11-21T10:51:54;101150.63;;;10.06;100.00
13612;BME280;6877;51.436;6.774;2023-11-21T10:54:27;101161.06;;;10.08;100.00
13612;BME280;6877;51.436;6.774;2023-11-21T10:56:57;101152.28;;;10.13;100.00
13612;BME280;6877;51.436;6.774;2023-11-21T10:59:29;101159.88;;;10.39;100.00
13612;BME280;6877;51.436;6.774;2023-11-21T11:01:57;101163.06;;;10.64;100.00
13612;BME280;6877;51.436;6.774;2023-11-21T11:04:30;101174.16;;;10.86;100.00
13612;BME280;6877;51.436;6.774;2023-11-21T11:07:02;101171.13;;;11.17;100.00
13612;BME280;6877;51.436;6.774;2023-11-21T11:09:30;101171.81;;;11.28;100.00
13612;BME280;6877;51.436;6.774;2023-11-21T11:12:01;101172.66;;;11.30;100.00
13612;BME280;6877;51.436;6.774;2023-11-21T11:14:33;101169.44;;;11.13;100.00
13612;BME280;6877;51.436;6.774;2023-11-21T11:17:07;101168.91;;;10.86;100.00
13612;BME280;6877;51.436;6.774;2023-11-21T11:19:40;101167.31;;;10.75;100.00
13612;BME280;6877;51.436;6.774;2023-11-21T11:33:21;101172.13;;;10.37;100.00
13612;BME280;6877;51.436;6.774;2023-11-21T11:38:32;101186.13;;;10.30;100.00
13612;BME280;6877;51.436;6.774;2023-11-21T11:41:06;101193.19;;;10.22;100.00
13612;BME280;6877;51.436;6.774;2023-11-21T11:43:33;101183.66;;;10.13;100.00
13612;BME280;6877;51.436;6.774;2023-11-21T11:46:11;101182.84;;;10.10;100.00
13612;BME280;6877;51.436;6.774;2023-11-21T11:48:40;101191.56;;;10.07;100.00
13612;BME280;6877;51.436;6.774;2023-11-21T11:51:11;101187.16;;;10.14;100.00
13612;BME280;6877;51.436;6.774;2023-11-21T11:53:41;101194.00;;;10.26;100.00
13612;BME280;6877;51.436;6.774;2023-11-21T11:58:50;101193.59;;;10.65;100.00
13612;BME280;6877;51.436;6.774;2023-11-21T12:01:21;101200.38;;;10.83;100.00
13612;BME280;6877;51.436;6.774;2023-11-21T12:07:05;101197.72;;;10.86;100.00
13612;BME280;6877;51.436;6.774;2023-11-21T12:09:31;101190.69;;;10.92;100.00
13612;BME280;6877;51.436;6.774;2023-11-21T12:12:05;101183.53;;;11.03;100.00
13612;BME280;6877;51.436;6.774;2023-11-21T12:14:31;101179.06;;;11.09;100.00
13612;BME280;6877;51.436;6.774;2023-11-21T12:17:03;101181.56;;;11.20;100.00
13612;BME280;6877;51.436;6.774;2023-11-21T12:19:31;101186.78;;;11.20;100.00
13612;BME280;6877;51.436;6.774;2023-11-21T12:21:57;101190.41;;;11.13;100.00
13612;BME280;6877;51.436;6.774;2023-11-21T12:24:25;101191.38;;;11.04;100.00
13612;BME280;6877;51.436;6.774;2023-11-21T12:26:57;101197.78;;;10.80;100.00
13612;BME280;6877;51.436;6.774;2023-11-21T12:29:23;101202.41;;;10.60;100.00
13612;BME280;6877;51.436;6.774;2023-11-21T12:31:50;101203.47;;;10.43;100.00
13612;BME280;6877;51.436;6.774;2023-11-21T12:34:21;101218.25;;;10.48;100.00
13612;BME280;6877;51.436;6.774;2023-11-21T12:36:49;101216.31;;;10.62;100.00
13612;BME280;6877;51.436;6.774;2023-11-21T12:39:16;101217.25;;;10.59;100.00
13612;BME280;6877;51.436;6.774;2023-11-21T12:41:48;101221.63;;;10.56;100.00
13612;BME280;6877;51.436;6.774;2023-11-21T12:44:20;101223.53;;;10.40;100.00
13612;BME280;6877;51.436;6.774;2023-11-21T12:46:53;101234.16;;;10.26;100.00
13612;BME280;6877;51.436;6.774;2023-11-21T12:49:26;101236.88;;;10.11;100.00
13612;BME280;6877;51.436;6.774;2023-11-21T12:51:54;101243.09;;;9.97;100.00
13612;BME280;6877;51.436;6.774;2023-11-21T12:54:25;101249.25;;;9.90;100.00
13612;BME280;6877;51.436;6.774;2023-11-21T12:56:52;101244.97;;;9.79;100.00
13612;BME280;6877;51.436;6.774;2023-11-21T12:59:20;101246.78;;;9.72;100.00
13612;BME280;6877;51.436;6.774;2023-11-21T13:01:47;101251.16;;;9.64;100.00
13612;BME280;6877;51.436;6.774;2023-11-21T13:04:13;101256.44;;;9.58;100.00
13612;BME280;6877;51.436;6.774;2023-11-21T13:06:40;101258.22;;;9.52;100.00
13612;BME280;6877;51.436;6.774;2023-11-21T13:09:08;101254.75;;;9.47;100.00
13612;BME280;6877;51.436;6.774;2023-11-21T13:11:37;101260.88;;;9.42;100.00
13612;BME280;6877;51.436;6.774;2023-11-21T13:14:05;101265.25;;;9.41;100.00
13612;BME280;6877;51.436;6.774;2023-11-21T13:16:36;101260.91;;;9.39;100.00
13612;BME280;6877;51.436;6.774;2023-11-21T13:19:05;101265.28;;;9.32;100.00
13612;BME280;6877;51.436;6.774;2023-11-21T13:21:31;101266.22;;;9.19;100.00
13612;BME280;6877;51.436;6.774;2023-11-21T13:24:03;101270.59;;;9.11;100.00
13612;BME280;6877;51.436;6.774;2023-11-21T13:26:30;101273.22;;;9.08;100.00
13612;BME280;6877;51.436;6.774;2023-11-21T13:29:02;101271.50;;;9.10;100.00